Time;durP1;ratioP1;P1;durP2;ratioP2;P2;SDS_P1;SDS_P2;PMS_P1;PMS_P2;Temp;Humidity;BMP_temperature;BMP_pressure;BME280_temperature;BME280_humidity;BME280_pressure;Samples;Min_cycle;Max_cycle;Signal;HPM_P1;HPM_P2
2022/05/15 00:02:33;;;;;;;;;;;;;;;11.92;60.67;100622.00;4903899;29;1667;-93
2022/05/15 00:05:00;;;;;;;;;;;;;;;11.92;60.59;100624.69;4910708;29;1179;-93
2022/05/15 00:07:27;;;;;;;;;;;;;;;11.92;60.71;100626.59;4903786;29;1363;-93
2022/05/15 00:09:53;;;;;;;;;;;;;;;11.91;60.71;100625.75;4903366;29;1969;-93
2022/05/15 00:12:20;;;;;;;;;;;;;;;11.90;60.69;100634.06;4909301;29;1354;-93
2022/05/15 00:14:46;;;;;;;;;;;;;;;11.90;60.71;100636.78;4921893;29;2180;-93
2022/05/15 00:17:13;;;;;;;;;;;;;;;11.89;60.59;100644.03;4903513;29;1525;-93
2022/05/15 00:19:40;;;;;;;;;;;;;;;11.89;60.71;100657.53;4902224;29;1984;-93
2022/05/15 00:22:06;;;;;;;;;;;;;;;11.87;60.73;100645.31;4903761;29;1305;-94
2022/05/15 00:24:33;;;;;;;;;;;;;;;11.87;60.68;100656.13;4908609;29;2329;-93
2022/05/15 00:26:59;;;;;;;;;;;;;;;11.86;60.82;100658.00;4922655;29;1267;-93
2022/05/15 00:29:26;;;;;;;;;;;;;;;11.86;60.69;100655.28;4910091;29;2542;-93
2022/05/15 00:31:53;;;;;;;;;;;;;;;11.85;60.78;100667.13;4938666;29;1071;-93
2022/05/15 00:34:19;;;;;;;;;;;;;;;11.83;60.83;100664.63;4903805;29;1978;-93
2022/05/15 00:36:46;;;;;;;;;;;;;;;11.83;60.73;100659.22;4903069;29;1304;-93
2022/05/15 00:39:12;;;;;;;;;;;;;;;11.80;60.59;100657.00;4903156;29;1984;-93
2022/05/15 00:41:39;;;;;;;;;;;;;;;11.80;60.54;100659.69;4901027;29;1266;-93
2022/05/15 00:44:05;;;;;;;;;;;;;;;11.80;60.48;100653.47;4913676;29;2796;-92
2022/05/15 00:46:32;;;;;;;;;;;;;;;11.78;60.66;100660.94;4902893;29;1192;-92
2022/05/15 00:48:59;;;;;;;;;;;;;;;11.78;60.59;100658.25;4918342;29;2292;-93
2022/05/15 00:51:25;;;;;;;;;;;;;;;11.77;60.53;100665.53;4891763;29;1275;-93
2022/05/15 00:53:52;;;;;;;;;;;;;;;11.76;60.62;100666.56;4910967;29;2815;-93
2022/05/15 00:56:18;;;;;;;;;;;;;;;11.76;60.69;100665.75;4903978;29;1968;-93
2022/05/15 00:58:46;;;;;;;;;;;;;;;11.75;60.53;100673.00;4907950;29;2738;-93
2022/05/15 01:01:13;;;;;;;;;;;;;;;11.75;60.64;100677.59;4900843;29;1200;-92
2022/05/15 01:03:39;;;;;;;;;;;;;;;11.72;60.47;100676.16;4906077;29;2408;-92
2022/05/15 01:06:06;;;;;;;;;;;;;;;11.63;60.46;100663.19;4906440;29;1177;-93
2022/05/15 01:08:32;;;;;;;;;;;;;;;11.71;60.37;100673.72;4902141;29;2230;-93
2022/05/15 01:10:59;;;;;;;;;;;;;;;11.71;60.49;100679.91;4908655;29;1283;-92
2022/05/15 01:13:25;;;;;;;;;;;;;;;11.70;60.54;100678.25;4913838;29;1539;-93
2022/05/15 01:15:52;;;;;;;;;;;;;;;11.70;60.38;100678.25;4902811;29;1183;-93
2022/05/15 01:18:19;;;;;;;;;;;;;;;11.69;60.48;100686.59;4903282;29;2750;-93
2022/05/15 01:20:45;;;;;;;;;;;;;;;11.69;60.68;100698.19;4902461;29;1906;-93
2022/05/15 01:23:12;;;;;;;;;;;;;;;11.68;60.51;100698.44;4913692;29;2175;-92
2022/05/15 01:25:38;;;;;;;;;;;;;;;11.67;60.45;100705.69;4916694;29;1053;-93
2022/05/15 01:28:05;;;;;;;;;;;;;;;11.66;60.53;100706.75;4919267;29;2616;-93
2022/05/15 01:30:32;;;;;;;;;;;;;;;11.66;60.56;100705.91;4886121;29;1432;-93
2022/05/15 01:32:58;;;;;;;;;;;;;;;11.62;60.44;100702.84;4905259;29;1944;-93
2022/05/15 01:35:25;;;;;;;;;;;;;;;11.62;60.67;100696.59;4908926;29;1296;-93
2022/05/15 01:37:51;;;;;;;;;;;;;;;11.62;60.38;100702.00;4902871;29;2228;-93
2022/05/15 01:40:18;;;;;;;;;;;;;;;11.59;60.64;100706.81;4895782;29;2040;-92
2022/05/15 01:42:44;;;;;;;;;;;;;;;11.60;60.51;100704.94;4920284;29;2102;-93
2022/05/15 01:45:11;;;;;;;;;;;;;;;11.58;60.56;100705.16;4902911;29;1198;-92
2022/05/15 01:47:37;;;;;;;;;;;;;;;11.58;60.52;100718.63;4905890;29;2647;-93
2022/05/15 01:50:04;;;;;;;;;;;;;;;11.58;60.45;100717.81;4899382;29;1869;-93
2022/05/15 01:52:30;;;;;;;;;;;;;;;11.57;60.40;100716.16;4899320;29;1175;-93
2022/05/15 01:54:57;;;;;;;;;;;;;;;11.57;60.59;100718.88;4913248;29;2282;-92
2022/05/15 01:57:23;;;;;;;;;;;;;;;11.55;60.59;100719.06;4897168;29;2460;-92
2022/05/15 01:59:50;;;;;;;;;;;;;;;11.53;60.42;100718.50;4914106;29;2740;-92
2022/05/15 02:02:16;;;;;;;;;;;;;;;11.53;60.54;100723.03;4898236;29;2206;-93
2022/05/15 02:04:43;;;;;;;;;;;;;;;11.53;60.45;100723.03;4910141;29;1903;-93
2022/05/15 02:07:09;;;;;;;;;;;;;;;11.51;60.40;100723.28;4901338;29;2506;-93
2022/05/15 02:09:36;;;;;;;;;;;;;;;11.51;60.39;100728.66;4902446;29;2752;-92
2022/05/15 02:12:02;;;;;;;;;;;;;;;11.49;60.45;100724.53;4916692;29;2410;-93
2022/05/15 02:14:29;;;;;;;;;;;;;;;11.49;60.56;100732.63;4906566;29;2552;-93
2022/05/15 02:16:55;;;;;;;;;;;;;;;11.48;60.49;100733.69;4907084;29;2262;-93
2022/05/15 02:19:22;;;;;;;;;;;;;;;11.47;60.38;100740.97;4910475;29;2742;-92
2022/05/15 02:21:48;;;;;;;;;;;;;;;11.47;60.53;100740.97;4905887;29;2334;-93
2022/05/15 02:24:15;;;;;;;;;;;;;;;11.45;60.61;100737.66;4897193;29;2507;-93
2022/05/15 02:26:41;;;;;;;;;;;;;;;11.45;60.38;100744.91;4900541;29;1919;-92
2022/05/15 02:29:08;;;;;;;;;;;;;;;11.44;60.42;100740.56;4900619;29;2709;-93
2022/05/15 02:31:34;;;;;;;;;;;;;;;11.43;60.60;100752.41;4916648;29;2312;-93
2022/05/15 02:34:01;;;;;;;;;;;;;;;11.41;60.46;100749.91;4916663;29;2623;-93
2022/05/15 02:36:28;;;;;;;;;;;;;;;11.42;60.43;100758.84;4898272;29;2323;-92
2022/05/15 02:38:55;;;;;;;;;;;;;;;11.40;60.49;100756.34;4913030;29;2720;-93
2022/05/15 02:41:21;;;;;;;;;;;;;;;11.39;60.36;100760.09;4902925;29;1992;-93
2022/05/15 02:43:48;;;;;;;;;;;;;;;11.39;60.33;100760.09;4905268;29;2434;-93
2022/05/15 02:46:14;;;;;;;;;;;;;;;11.37;60.37;100756.78;4891641;29;2474;-93
2022/05/15 02:51:26;;;;;;;;;;;;;;;11.35;60.41;100761.56;4888621;29;1944;-93
2022/05/15 02:53:53;;;;;;;;;;;;;;;11.33;60.49;100767.19;4900365;29;2670;-93
2022/05/15 02:56:19;;;;;;;;;;;;;;;11.32;60.42;100765.56;4904941;29;2245;-93
2022/05/15 02:58:46;;;;;;;;;;;;;;;11.30;60.47;100764.94;4899240;29;2248;-93
2022/05/15 03:01:13;;;;;;;;;;;;;;;11.30;60.52;100764.13;4909867;29;2340;-93
2022/05/15 03:03:39;;;;;;;;;;;;;;;11.28;60.52;100767.03;4919050;29;2715;-93
2022/05/15 03:06:06;;;;;;;;;;;;;;;11.27;60.40;100769.97;4912450;29;2428;-93
2022/05/15 03:08:32;;;;;;;;;;;;;;;11.25;60.37;100772.84;4900013;29;2434;-93
2022/05/15 03:10:59;;;;;;;;;;;;;;;11.25;60.34;100769.34;4905924;29;2379;-93
2022/05/15 03:13:25;;;;;;;;;;;;;;;11.24;60.42;100781.19;4905268;29;2833;-93
2022/05/15 03:15:52;;;;;;;;;;;;;;;11.22;60.52;100776.00;4905703;29;1574;-93
2022/05/15 03:18:19;;;;;;;;;;;;;;;11.22;60.43;100775.16;4918322;29;2464;-93
2022/05/15 03:20:45;;;;;;;;;;;;;;;11.20;60.29;100775.38;4917733;29;2398;-93
2022/05/15 03:23:13;;;;;;;;;;;;;;;11.18;60.39;100780.19;4911571;29;2323;-92
2022/05/15 03:25:39;;;;;;;;;;;;;;;11.19;60.50;100789.09;4916016;29;1421;-92
2022/05/15 03:28:09;;;;;;;;;;;;;;;11.18;60.34;100784.72;4933030;29;2767;-93
2022/05/15 03:30:36;;;;;;;;;;;;;;;11.16;60.29;100787.66;4910887;29;2516;-92
2022/05/15 03:33:02;;;;;;;;;;;;;;;11.15;60.18;100788.72;4914779;29;2794;-92
2022/05/15 03:35:28;;;;;;;;;;;;;;;11.14;60.35;100790.53;4905645;29;1326;-93
2022/05/15 03:37:55;;;;;;;;;;;;;;;11.13;60.24;100798.88;4903496;29;2378;-92
2022/05/15 03:40:21;;;;;;;;;;;;;;;11.12;60.25;100797.22;4902762;29;2570;-93
2022/05/15 03:42:48;;;;;;;;;;;;;;;11.12;60.31;100800.75;4921203;29;2830;-93
2022/05/15 03:45:14;;;;;;;;;;;;;;;11.10;60.25;100808.22;4901651;29;3062;-92
2022/05/15 03:47:41;;;;;;;;;;;;;;;11.10;60.18;100810.09;4902378;29;2196;-93
2022/05/15 03:50:08;;;;;;;;;;;;;;;11.08;60.37;100809.47;4900379;29;2335;-93
2022/05/15 03:52:35;;;;;;;;;;;;;;;11.07;60.27;100811.34;4918105;29;1872;-93
2022/05/15 03:55:01;;;;;;;;;;;;;;;11.06;60.26;100820.47;4931323;29;2281;-93
2022/05/15 03:57:27;;;;;;;;;;;;;;;11.06;60.24;100819.63;4911420;29;2813;-93
2022/05/15 03:59:54;;;;;;;;;;;;;;;11.05;60.30;100823.38;4902187;29;2648;-92
2022/05/15 04:02:20;;;;;;;;;;;;;;;11.04;60.17;100824.44;4902595;29;2387;-93
2022/05/15 04:04:47;;;;;;;;;;;;;;;11.03;60.27;100828.16;4902955;29;1982;-93
2022/05/15 04:07:14;;;;;;;;;;;;;;;11.01;60.32;100836.47;4903942;29;1304;-92
2022/05/15 04:09:40;;;;;;;;;;;;;;;11.01;60.23;100847.25;4901632;29;2703;-93
2022/05/15 04:12:07;;;;;;;;;;;;;;;11.00;60.22;100842.06;4896850;29;2309;-92
2022/05/15 04:14:34;;;;;;;;;;;;;;;11.00;60.19;100848.31;4902590;29;2771;-92
2022/05/15 04:17:00;;;;;;;;;;;;;;;10.97;60.22;100853.28;4907586;29;2291;-93
2022/05/15 04:19:27;;;;;;;;;;;;;;;10.97;60.21;100859.50;4927643;29;2312;-92
2022/05/15 04:21:53;;;;;;;;;;;;;;;10.96;60.05;100860.53;4903558;29;2493;-92
2022/05/15 04:24:20;;;;;;;;;;;;;;;10.96;60.19;100854.31;4894045;29;2219;-93
2022/05/15 04:26:47;;;;;;;;;;;;;;;10.95;60.21;100863.47;4908735;29;2409;-92
2022/05/15 04:29:13;;;;;;;;;;;;;;;10.93;60.12;100868.22;4895701;29;2739;-93
2022/05/15 04:31:40;;;;;;;;;;;;;;;10.93;60.13;100879.00;4912895;29;2390;-93
2022/05/15 04:34:06;;;;;;;;;;;;;;;10.91;60.08;100884.59;4908023;29;2304;-93
2022/05/15 04:36:33;;;;;;;;;;;;;;;10.91;59.98;100882.75;4902978;29;2312;-93
2022/05/15 04:39:01;;;;;;;;;;;;;;;10.90;60.15;100897.25;4901676;29;2707;-93
2022/05/15 04:41:28;;;;;;;;;;;;;;;10.90;59.96;100894.56;4913705;29;1915;-93
2022/05/15 04:43:54;;;;;;;;;;;;;;;10.90;59.95;100899.94;4908101;29;2551;-92
2022/05/15 04:46:22;;;;;;;;;;;;;;;10.88;60.04;100891.25;4939005;29;966;-93
2022/05/15 04:48:48;;;;;;;;;;;;;;;10.88;59.95;100903.88;4906799;29;2507;-93
2022/05/15 04:51:15;;;;;;;;;;;;;;;10.87;60.00;100902.25;4903216;29;1176;-93
2022/05/15 04:53:41;;;;;;;;;;;;;;;10.86;59.95;100912.19;4908099;29;2174;-93
2022/05/15 04:56:08;;;;;;;;;;;;;;;10.85;59.98;100915.09;4900862;29;1688;-93
2022/05/15 04:58:35;;;;;;;;;;;;;;;10.84;60.09;100906.19;4897258;29;2413;-92
2022/05/15 05:01:01;;;;;;;;;;;;;;;10.83;60.07;100906.41;4911670;29;2072;-92
2022/05/15 05:03:28;;;;;;;;;;;;;;;10.84;59.88;100899.97;4916472;29;2709;-92
2022/05/15 05:05:54;;;;;;;;;;;;;;;10.83;59.95;100903.72;4907854;29;1183;-93
2022/05/15 05:08:21;;;;;;;;;;;;;;;10.82;59.91;100893.97;4913838;29;2085;-93
2022/05/15 05:10:48;;;;;;;;;;;;;;;10.81;59.92;100901.22;4901283;29;2140;-92
2022/05/15 05:13:14;;;;;;;;;;;;;;;10.81;59.77;100905.78;4898500;29;2139;-93
2022/05/15 05:15:41;;;;;;;;;;;;;;;10.80;59.89;100909.53;4893247;29;2032;-92
2022/05/15 05:18:08;;;;;;;;;;;;;;;10.79;59.84;100913.25;4895231;29;2712;-92
2022/05/15 05:20:34;;;;;;;;;;;;;;;10.79;59.80;100918.63;4899291;29;1985;-92
2022/05/15 05:23:01;;;;;;;;;;;;;;;10.79;59.69;100915.94;4901786;29;2299;-93
2022/05/15 05:25:28;;;;;;;;;;;;;;;10.78;59.75;100920.50;4900852;29;2454;-93
2022/05/15 05:27:54;;;;;;;;;;;;;;;10.78;59.81;100911.59;4903559;29;2751;-93
2022/05/15 05:30:21;;;;;;;;;;;;;;;10.78;59.79;100925.06;4905807;29;3081;-92
2022/05/15 05:32:48;;;;;;;;;;;;;;;10.76;59.73;100921.75;4893745;29;2590;-92
2022/05/15 05:35:14;;;;;;;;;;;;;;;10.76;59.65;100924.44;4915155;29;2257;-92
2022/05/15 05:37:41;;;;;;;;;;;;;;;10.76;59.68;100927.16;4918367;29;1766;-93
2022/05/15 05:40:07;;;;;;;;;;;;;;;10.76;59.66;100922.56;4907286;29;2429;-93
2022/05/15 05:42:34;;;;;;;;;;;;;;;10.77;59.56;100921.56;4920789;29;1629;-92
2022/05/15 05:45:02;;;;;;;;;;;;;;;10.76;59.70;100925.28;4916843;29;2152;-93
2022/05/15 05:47:29;;;;;;;;;;;;;;;10.77;59.84;100929.63;4902638;29;1160;-92
2022/05/15 05:49:55;;;;;;;;;;;;;;;10.76;59.69;100929.84;4902880;29;2171;-93
2022/05/15 05:52:22;;;;;;;;;;;;;;;10.75;59.60;100930.88;4898856;29;1289;-93
2022/05/15 05:54:48;;;;;;;;;;;;;;;10.76;59.58;100932.53;4921562;29;2657;-96
2022/05/15 05:57:15;;;;;;;;;;;;;;;10.74;59.55;100938.16;4919210;29;1515;-96
2022/05/15 05:59:41;;;;;;;;;;;;;;;10.76;59.53;100932.53;4900202;29;1393;-96
2022/05/15 06:02:08;;;;;;;;;;;;;;;10.75;59.50;100936.28;4912874;29;1919;-96
2022/05/15 06:04:40;;;;;;;;;;;;;;;10.74;59.42;100935.44;4902571;29;1945;-96
2022/05/15 06:07:06;;;;;;;;;;;;;;;10.74;59.74;100931.94;4904130;29;1392;-96
2022/05/15 06:09:33;;;;;;;;;;;;;;;10.73;59.49;100931.09;4900932;29;2813;-96
2022/05/15 06:11:59;;;;;;;;;;;;;;;10.75;59.30;100941.66;4901738;29;2334;-93
2022/05/15 06:14:26;;;;;;;;;;;;;;;10.74;59.36;100943.53;4900670;29;2160;-93
2022/05/15 06:16:52;;;;;;;;;;;;;;;10.74;59.45;100948.09;4904072;29;2597;-93
2022/05/15 06:19:19;;;;;;;;;;;;;;;10.73;59.30;100946.41;4905099;29;2040;-94
2022/05/15 06:21:45;;;;;;;;;;;;;;;10.72;59.32;100953.69;4901782;29;1958;-93
2022/05/15 06:24:12;;;;;;;;;;;;;;;10.74;59.35;100956.19;4920955;29;2141;-94
2022/05/15 06:26:39;;;;;;;;;;;;;;;10.73;59.30;100952.63;4899017;29;1290;-92
2022/05/15 06:29:05;;;;;;;;;;;;;;;10.75;59.26;100955.13;4915828;29;2289;-93
2022/05/15 06:31:32;;;;;;;;;;;;;;;10.74;59.29;100957.00;4896330;29;2411;-93
2022/05/15 06:33:58;;;;;;;;;;;;;;;10.74;59.24;100961.56;4903084;29;2864;-93
2022/05/15 06:36:25;;;;;;;;;;;;;;;10.73;59.25;100968.78;4906409;29;1211;-93
2022/05/15 06:38:51;;;;;;;;;;;;;;;10.73;59.32;100958.03;4902799;29;2229;-93
2022/05/15 06:41:18;;;;;;;;;;;;;;;10.72;59.24;100955.56;4921959;29;1913;-93
2022/05/15 06:43:44;;;;;;;;;;;;;;;10.76;59.23;100954.09;4921413;29;2123;-92
2022/05/15 06:46:10;;;;;;;;;;;;;;;10.75;59.24;100952.44;4902113;29;1579;-93
2022/05/15 06:48:38;;;;;;;;;;;;;;;10.74;59.28;100957.00;4906258;29;2079;-92
2022/05/15 06:51:05;;;;;;;;;;;;;;;10.74;59.22;100956.19;4909945;29;1419;-92
2022/05/15 06:53:32;;;;;;;;;;;;;;;10.76;59.30;100959.47;4904480;29;2228;-92
2022/05/15 06:58:46;;;;;;;;;;;;;;;10.76;59.06;100970.25;4890251;29;2020;-96
2022/05/15 07:01:13;;;;;;;;;;;;;;;10.76;59.15;100965.69;4902062;29;1911;-96
2022/05/15 07:03:39;;;;;;;;;;;;;;;10.77;59.01;100964.66;4902489;29;1723;-94
2022/05/15 07:06:07;;;;;;;;;;;;;;;10.78;59.00;100963.63;4922100;29;888;-93
2022/05/15 07:08:34;;;;;;;;;;;;;;;10.80;59.05;100966.13;4900330;29;2431;-95
2022/05/15 07:11:00;;;;;;;;;;;;;;;10.79;58.86;100967.97;4904719;29;1269;-94
2022/05/15 07:13:27;;;;;;;;;;;;;;;10.81;58.91;100965.88;4902170;29;2972;-95
2022/05/15 07:15:53;;;;;;;;;;;;;;;10.81;58.89;100971.28;4904502;29;2312;-93
2022/05/15 07:18:23;;;;;;;;;;;;;;;10.83;58.76;100976.47;4911734;29;2190;-94
2022/05/15 07:20:50;;;;;;;;;;;;;;;10.83;58.84;100969.22;4932841;28;1887;-94
2022/05/15 07:23:16;;;;;;;;;;;;;;;10.85;58.81;100979.75;4909236;29;2391;-95
2022/05/15 07:25:43;;;;;;;;;;;;;;;10.86;58.87;100978.75;4910211;29;1209;-94
2022/05/15 07:28:09;;;;;;;;;;;;;;;10.86;58.77;100982.25;4904422;29;2021;-93
2022/05/15 07:30:36;;;;;;;;;;;;;;;10.87;58.68;100981.22;4903565;29;2917;-91
2022/05/15 07:33:02;;;;;;;;;;;;;;;10.88;58.64;100979.34;4902008;29;2718;-93
2022/05/15 07:35:29;;;;;;;;;;;;;;;10.89;58.70;100981.00;4912504;29;1298;-93
2022/05/15 07:37:55;;;;;;;;;;;;;;;10.87;58.85;100989.28;4929327;29;2373;-92
2022/05/15 07:40:22;;;;;;;;;;;;;;;10.90;58.71;100996.13;4911783;29;2278;-93
2022/05/15 07:42:49;;;;;;;;;;;;;;;10.89;58.79;100994.47;4910086;29;2744;-92
2022/05/15 07:45:15;;;;;;;;;;;;;;;10.91;58.75;101003.16;4897767;29;2239;-92
2022/05/15 07:47:42;;;;;;;;;;;;;;;10.89;58.61;101003.38;4886750;29;2456;-92
2022/05/15 07:50:08;;;;;;;;;;;;;;;10.89;58.55;100999.88;4905869;29;1194;-92
2022/05/15 07:52:35;;;;;;;;;;;;;;;10.90;58.45;100996.13;4927484;29;2698;-92
2022/05/15 07:55:01;;;;;;;;;;;;;;;10.91;58.32;100995.94;4892912;29;2145;-93
2022/05/15 07:57:28;;;;;;;;;;;;;;;10.90;58.15;100999.66;4913514;29;1143;-93
2022/05/15 07:59:56;;;;;;;;;;;;;;;10.91;58.34;101006.72;4901927;29;1433;-93
2022/05/15 08:02:22;;;;;;;;;;;;;;;10.91;58.58;101009.41;4902343;29;2252;-94
2022/05/15 08:10:17;;;;;;;;;;;;;;;10.93;58.48;101013.75;4903909;29;1633;-93
2022/05/15 08:12:44;;;;;;;;;;;;;;;10.93;58.61;101017.25;4903316;29;1981;-92
2022/05/15 08:15:11;;;;;;;;;;;;;;;10.94;58.28;101018.91;4911585;29;2468;-92
2022/05/15 08:17:37;;;;;;;;;;;;;;;10.95;58.49;101014.38;4903928;29;2181;-92
2022/05/15 08:25:38;;;;;;;;;;;;;;;10.96;58.59;101016.03;4886091;29;1401;-92
2022/05/15 08:28:05;;;;;;;;;;;;;;;10.97;58.46;101017.66;4903309;29;2147;-93
2022/05/15 08:30:31;;;;;;;;;;;;;;;10.97;58.44;101026.59;4901543;29;2402;-92
2022/05/15 08:32:58;;;;;;;;;;;;;;;10.97;58.55;101015.81;4902782;29;2253;-92
2022/05/15 08:35:25;;;;;;;;;;;;;;;10.98;58.66;101017.47;4914868;29;1405;-93
2022/05/15 08:37:51;;;;;;;;;;;;;;;10.99;58.69;101012.91;4911116;29;2776;-93
2022/05/15 08:40:17;;;;;;;;;;;;;;;10.99;58.60;101023.69;4893970;29;2383;-92
2022/05/15 08:42:44;;;;;;;;;;;;;;;10.99;58.60;101020.97;4903794;29;2387;-93
2022/05/15 08:45:11;;;;;;;;;;;;;;;11.01;58.72;101021.63;4902453;29;2588;-93
2022/05/15 08:47:37;;;;;;;;;;;;;;;11.01;58.65;101019.75;4900202;29;2049;-93
2022/05/15 08:50:04;;;;;;;;;;;;;;;11.00;58.59;101015.41;4903913;29;1393;-93
2022/05/15 08:52:31;;;;;;;;;;;;;;;11.01;58.66;101022.44;4903129;29;2405;-92
2022/05/15 08:54:57;;;;;;;;;;;;;;;11.03;58.58;101022.22;4919424;29;2486;-93
2022/05/15 08:57:24;;;;;;;;;;;;;;;11.04;58.73;101026.59;4898726;29;2139;-93
2022/05/15 08:59:51;;;;;;;;;;;;;;;11.04;58.56;101031.97;4902249;29;1969;-93
2022/05/15 09:02:17;;;;;;;;;;;;;;;11.05;58.64;101020.97;4901815;29;2027;-93
2022/05/15 09:04:45;;;;;;;;;;;;;;;11.05;58.75;101023.66;4878843;29;2130;-93
2022/05/15 09:07:12;;;;;;;;;;;;;;;11.05;58.47;101018.25;4892153;29;1898;-93
2022/05/15 09:09:38;;;;;;;;;;;;;;;11.06;58.53;101014.56;4901563;29;2445;-93
2022/05/15 09:12:05;;;;;;;;;;;;;;;11.07;58.58;101020.75;4902657;29;1284;-93
2022/05/15 09:14:31;;;;;;;;;;;;;;;11.08;58.58;101023.22;4903086;29;1970;-93
2022/05/15 09:16:58;;;;;;;;;;;;;;;11.08;58.22;101025.09;4913199;29;2501;-93
2022/05/15 09:19:24;;;;;;;;;;;;;;;11.08;57.52;101031.31;4923823;29;2209;-93
2022/05/15 09:21:51;;;;;;;;;;;;;;;11.09;57.53;101030.31;4892581;29;1986;-93
2022/05/15 09:24:17;;;;;;;;;;;;;;;11.10;57.95;101026.56;4908552;29;2146;-93
2022/05/15 09:26:44;;;;;;;;;;;;;;;11.11;58.21;101022.81;4913630;29;1328;-92
2022/05/15 09:29:14;;;;;;;;;;;;;;;11.13;58.59;101022.63;4908212;29;2706;-92
2022/05/15 09:31:42;;;;;;;;;;;;;;;11.13;58.55;101018.03;4901614;29;1857;-93
2022/05/15 09:34:08;;;;;;;;;;;;;;;11.13;58.09;101019.91;4911256;29;1300;-93
2022/05/15 09:36:35;;;;;;;;;;;;;;;11.14;57.82;101017.00;4902693;29;1207;-94
2022/05/15 09:39:00;;;;;;;;;;;;;;;11.17;58.02;101014.91;4893833;29;2789;-93
2022/05/15 09:44:11;;;;;;;;;;;;;;;11.19;58.79;101020.94;4903078;29;1804;-93
2022/05/15 09:46:38;;;;;;;;;;;;;;;11.19;58.65;101019.06;4901564;29;2305;-93
2022/05/15 09:49:05;;;;;;;;;;;;;;;11.18;58.61;101020.13;4894073;29;2101;-93
2022/05/15 09:51:32;;;;;;;;;;;;;;;11.20;58.29;101019.88;4894873;29;1586;-92
2022/05/15 09:53:58;;;;;;;;;;;;;;;11.20;58.41;101012.63;4910247;29;2623;-93
2022/05/15 09:56:25;;;;;;;;;;;;;;;11.22;58.73;101013.25;4900394;29;2139;-93
2022/05/15 09:58:52;;;;;;;;;;;;;;;11.24;58.70;101011.19;4900702;29;2359;-93
2022/05/15 10:01:18;;;;;;;;;;;;;;;11.24;58.87;101008.47;4901261;29;2409;-93
2022/05/15 10:03:45;;;;;;;;;;;;;;;11.25;58.93;101018.22;4899073;29;2762;-93
2022/05/15 10:06:11;;;;;;;;;;;;;;;11.25;58.60;101015.50;4887877;29;1279;-93
2022/05/15 10:08:38;;;;;;;;;;;;;;;11.25;58.18;101017.38;4900613;29;2473;-93
2022/05/15 10:11:04;;;;;;;;;;;;;;;11.25;58.02;101026.31;4910611;29;1253;-93
2022/05/15 10:13:31;;;;;;;;;;;;;;;11.27;57.90;101013.44;4907431;29;2718;-92
2022/05/15 10:15:57;;;;;;;;;;;;;;;11.31;58.27;101021.94;4901383;29;2454;-93
2022/05/15 10:18:24;;;;;;;;;;;;;;;11.32;58.53;101010.09;4912325;29;2252;-93
2022/05/15 10:20:50;;;;;;;;;;;;;;;11.35;58.73;101023.16;4901968;29;1299;-93
2022/05/15 10:23:17;;;;;;;;;;;;;;;11.35;59.11;101028.53;4913033;29;1918;-93
2022/05/15 10:25:44;;;;;;;;;;;;;;;11.35;59.04;101020.44;4905609;29;1187;-93
2022/05/15 10:28:10;;;;;;;;;;;;;;;11.35;58.89;101020.44;4903202;29;2096;-93
2022/05/15 10:30:37;;;;;;;;;;;;;;;11.35;58.72;101024.00;4901143;29;1682;-93
2022/05/15 10:33:03;;;;;;;;;;;;;;;11.39;58.66;101018.19;4905887;29;2719;-92
2022/05/15 10:35:29;;;;;;;;;;;;;;;11.41;58.75;101016.06;4909038;29;1200;-93
2022/05/15 10:37:56;;;;;;;;;;;;;;;11.41;58.84;101016.06;4908419;29;1644;-92
2022/05/15 10:40:22;;;;;;;;;;;;;;;11.41;58.83;101016.91;4892127;29;1788;-93
2022/05/15 10:42:49;;;;;;;;;;;;;;;11.42;58.76;101005.09;4902987;29;1994;-93
2022/05/15 10:45:16;;;;;;;;;;;;;;;11.44;59.13;101010.25;4905669;29;2124;-93
2022/05/15 10:47:42;;;;;;;;;;;;;;;11.46;59.09;101013.56;4898145;29;2460;-93
2022/05/15 10:50:12;;;;;;;;;;;;;;;11.48;59.16;101015.00;4900969;29;1344;-93
2022/05/15 10:52:39;;;;;;;;;;;;;;;11.48;59.35;101006.94;4901105;29;2652;-93
2022/05/15 10:57:50;;;;;;;;;;;;;;;11.50;59.01;101010.25;4893829;29;2139;-92
2022/05/15 11:00:17;;;;;;;;;;;;;;;11.52;59.11;101013.53;4900321;29;1867;-93
2022/05/15 11:02:43;;;;;;;;;;;;;;;11.54;59.24;101014.16;4901648;29;2387;-93
2022/05/15 11:05:10;;;;;;;;;;;;;;;11.54;59.35;101016.84;4909304;29;1179;-93
2022/05/15 11:07:36;;;;;;;;;;;;;;;11.56;59.12;101016.66;4905511;29;2776;-92
2022/05/15 11:10:03;;;;;;;;;;;;;;;11.53;58.61;101009.81;4908586;29;2227;-93
2022/05/15 11:12:29;;;;;;;;;;;;;;;11.55;58.33;101012.28;4915113;29;1229;-93
2022/05/15 11:14:56;;;;;;;;;;;;;;;11.55;57.98;101014.97;4900960;29;2203;-93
2022/05/15 11:17:22;;;;;;;;;;;;;;;11.55;58.20;101018.50;4902501;29;2728;-93
2022/05/15 11:19:49;;;;;;;;;;;;;;;11.57;58.15;101021.00;4911772;29;2104;-93
2022/05/15 11:22:15;;;;;;;;;;;;;;;11.58;58.19;101014.53;4905877;29;2768;-93
2022/05/15 11:24:42;;;;;;;;;;;;;;;11.62;58.07;101015.78;4895764;29;1696;-93
2022/05/15 11:27:09;;;;;;;;;;;;;;;11.65;58.27;101022.59;4928389;29;1632;-93
2022/05/15 11:29:35;;;;;;;;;;;;;;;11.64;58.48;101021.78;4902866;29;2258;-93
2022/05/15 11:32:02;;;;;;;;;;;;;;;11.66;58.19;101018.88;4903708;29;2557;-93
2022/05/15 11:34:29;;;;;;;;;;;;;;;11.66;58.49;101017.00;4921027;29;2851;-92
2022/05/15 11:36:55;;;;;;;;;;;;;;;11.69;58.41;101019.28;4904040;29;2003;-93
2022/05/15 11:39:24;;;;;;;;;;;;;;;11.71;58.83;101024.47;4891879;29;2645;-93
2022/05/15 11:42:08;;;;;;;;;;;;;;;11.70;58.65;101014.69;4897071;29;2221;-93
2022/05/15 11:44:34;;;;;;;;;;;;;;;11.71;58.00;101021.78;4901962;29;2156;-93
2022/05/15 11:47:01;;;;;;;;;;;;;;;11.73;58.20;101031.28;4904149;29;2011;-93
2022/05/15 11:49:28;;;;;;;;;;;;;;;11.72;58.11;101029.63;4906877;29;2742;-94
2022/05/15 11:51:55;;;;;;;;;;;;;;;11.75;57.78;101037.28;4903774;29;1780;-92
2022/05/15 11:54:21;;;;;;;;;;;;;;;11.76;58.32;101038.13;4911509;29;1960;-93
2022/05/15 11:56:48;;;;;;;;;;;;;;;11.80;58.38;101036.66;4899110;29;1561;-92
2022/05/15 11:59:14;;;;;;;;;;;;;;;11.84;58.69;101037.88;4905187;29;1526;-92
2022/05/15 12:01:41;;;;;;;;;;;;;;;11.83;59.04;101039.75;4907756;29;1981;-92
2022/05/15 12:04:08;;;;;;;;;;;;;;;11.88;58.98;101032.88;4902766;29;2766;-92
2022/05/15 12:06:34;;;;;;;;;;;;;;;11.90;59.12;101034.34;4908546;29;2391;-93
2022/05/15 12:09:01;;;;;;;;;;;;;;;11.93;59.15;101027.69;4911889;29;1589;-94
2022/05/15 12:11:28;;;;;;;;;;;;;;;11.95;59.22;101031.00;4908285;29;1238;-94
2022/05/15 12:13:54;;;;;;;;;;;;;;;11.96;59.54;101030.75;4901983;29;2742;-94
2022/05/15 12:16:21;;;;;;;;;;;;;;;11.97;59.43;101031.59;4909857;29;2778;-94
2022/05/15 12:18:47;;;;;;;;;;;;;;;11.98;59.70;101033.25;4902167;29;2512;-94
2022/05/15 12:21:14;;;;;;;;;;;;;;;11.99;59.72;101030.34;4903830;29;1159;-94
2022/05/15 12:24:26;;;;;;;;;;;;;;;12.00;59.68;101039.25;4902810;29;2561;-94
2022/05/15 12:26:27;;;;;;;;;;;;;;;12.02;59.92;101035.28;4900272;29;1374;-93
2022/05/15 12:28:53;;;;;;;;;;;;;;;12.02;59.88;101023.66;4895039;29;1965;-94
2022/05/15 12:31:20;;;;;;;;;;;;;;;12.03;60.06;101023.47;4896312;29;1183;-94
2022/05/15 12:33:46;;;;;;;;;;;;;;;12.05;60.14;101024.06;4913257;29;1536;-94
2022/05/15 12:36:13;;;;;;;;;;;;;;;12.07;60.03;101025.72;4919327;29;1853;-96
2022/05/15 12:38:39;;;;;;;;;;;;;;;12.08;60.02;101020.09;4899435;29;2285;-95
2022/05/15 12:41:06;;;;;;;;;;;;;;;12.09;60.16;101020.91;4906735;29;1171;-94
2022/05/15 12:43:32;;;;;;;;;;;;;;;12.10;60.27;101019.91;4901552;29;2550;-95
2022/05/15 12:45:59;;;;;;;;;;;;;;;12.11;60.42;101016.13;4900242;29;2046;-94
2022/05/15 12:48:26;;;;;;;;;;;;;;;12.12;60.39;101017.78;4908206;29;1805;-94
2022/05/15 12:50:52;;;;;;;;;;;;;;;12.12;60.49;101012.38;4893580;29;2349;-94
2022/05/15 12:53:19;;;;;;;;;;;;;;;12.12;60.36;101015.94;4896882;29;2695;-95
2022/05/15 12:55:45;;;;;;;;;;;;;;;12.15;60.37;101014.69;4901495;29;2399;-94
2022/05/15 12:58:12;;;;;;;;;;;;;;;12.16;60.57;101021.72;4897248;29;2036;-93
2022/05/15 13:00:38;;;;;;;;;;;;;;;12.17;60.54;101018.78;4887469;29;2386;-95
2022/05/15 13:03:05;;;;;;;;;;;;;;;12.18;60.59;101023.16;4904184;29;2162;-94
2022/05/15 13:05:31;;;;;;;;;;;;;;;12.19;60.47;101024.81;4893988;29;2391;-94
2022/05/15 13:07:58;;;;;;;;;;;;;;;12.21;60.46;101025.41;4901370;29;2774;-94